sensor_id;sensor_type;location;lat;lon;timestamp;P1;durP1;ratioP1;P2;durP2;ratioP2
19593;SDS011;9944;48.240;16.478;2023-05-07T00:00:31;2.10;;;1.90;;
19593;SDS011;9944;48.240;16.478;2023-05-07T00:04:36;2.67;;;1.95;;
19593;SDS011;9944;48.240;16.478;2023-05-07T00:08:40;2.80;;;2.10;;
19593;SDS011;9944;48.240;16.478;2023-05-07T00:12:43;1.92;;;1.73;;
19593;SDS011;9944;48.240;16.478;2023-05-07T00:16:46;2.33;;;1.98;;
19593;SDS011;9944;48.240;16.478;2023-05-07T00:20:51;1.98;;;1.60;;
19593;SDS011;9944;48.240;16.478;2023-05-07T00:24:54;2.53;;;1.95;;
19593;SDS011;9944;48.240;16.478;2023-05-07T00:28:57;3.17;;;2.03;;
19593;SDS011;9944;48.240;16.478;2023-05-07T00:33:00;2.53;;;2.03;;
19593;SDS011;9944;48.240;16.478;2023-05-07T00:37:04;2.20;;;2.00;;
19593;SDS011;9944;48.240;16.478;2023-05-07T00:41:08;2.55;;;1.95;;
19593;SDS011;9944;48.240;16.478;2023-05-07T00:45:12;2.50;;;2.22;;
19593;SDS011;9944;48.240;16.478;2023-05-07T00:49:15;2.50;;;2.17;;
19593;SDS011;9944;48.240;16.478;2023-05-07T00:53:20;2.47;;;2.05;;
19593;SDS011;9944;48.240;16.478;2023-05-07T00:57:23;3.92;;;2.10;;
19593;SDS011;9944;48.240;16.478;2023-05-07T01:01:27;2.80;;;2.15;;
19593;SDS011;9944;48.240;16.478;2023-05-07T01:05:31;2.10;;;1.88;;
19593;SDS011;9944;48.240;16.478;2023-05-07T01:09:36;1.88;;;1.73;;
19593;SDS011;9944;48.240;16.478;2023-05-07T01:13:40;2.42;;;2.08;;
19593;SDS011;9944;48.240;16.478;2023-05-07T01:17:44;1.73;;;1.63;;
19593;SDS011;9944;48.240;16.478;2023-05-07T01:21:55;1.75;;;1.63;;
19593;SDS011;9944;48.240;16.478;2023-05-07T01:26:10;1.92;;;1.70;;
19593;SDS011;9944;48.240;16.478;2023-05-07T01:30:13;1.98;;;1.50;;
19593;SDS011;9944;48.240;16.478;2023-05-07T01:34:17;1.90;;;1.70;;
19593;SDS011;9944;48.240;16.478;2023-05-07T01:38:21;2.05;;;1.60;;
19593;SDS011;9944;48.240;16.478;2023-05-07T01:42:27;2.00;;;1.75;;
19593;SDS011;9944;48.240;16.478;2023-05-07T01:46:32;2.22;;;1.90;;
19593;SDS011;9944;48.240;16.478;2023-05-07T01:50:36;2.15;;;1.88;;
19593;SDS011;9944;48.240;16.478;2023-05-07T01:54:39;2.42;;;1.90;;
19593;SDS011;9944;48.240;16.478;2023-05-07T01:58:44;2.00;;;1.77;;
19593;SDS011;9944;48.240;16.478;2023-05-07T02:02:48;2.60;;;1.83;;
19593;SDS011;9944;48.240;16.478;2023-05-07T02:07:01;2.10;;;1.90;;
19593;SDS011;9944;48.240;16.478;2023-05-07T02:11:04;2.17;;;1.83;;
19593;SDS011;9944;48.240;16.478;2023-05-07T02:15:11;2.33;;;1.70;;
19593;SDS011;9944;48.240;16.478;2023-05-07T02:19:14;2.83;;;1.70;;
19593;SDS011;9944;48.240;16.478;2023-05-07T02:23:17;2.55;;;1.85;;
19593;SDS011;9944;48.240;16.478;2023-05-07T02:27:21;2.50;;;2.00;;
19593;SDS011;9944;48.240;16.478;2023-05-07T02:31:26;2.63;;;2.05;;
19593;SDS011;9944;48.240;16.478;2023-05-07T02:35:29;2.60;;;2.05;;
19593;SDS011;9944;48.240;16.478;2023-05-07T02:39:32;2.08;;;1.88;;
19593;SDS011;9944;48.240;16.478;2023-05-07T02:43:36;2.15;;;1.70;;
19593;SDS011;9944;48.240;16.478;2023-05-07T02:47:40;2.10;;;1.85;;
19593;SDS011;9944;48.240;16.478;2023-05-07T02:51:43;2.30;;;2.00;;
19593;SDS011;9944;48.240;16.478;2023-05-07T02:55:53;2.75;;;1.80;;
19593;SDS011;9944;48.240;16.478;2023-05-07T02:59:59;2.85;;;2.20;;
19593;SDS011;9944;48.240;16.478;2023-05-07T03:04:07;2.75;;;2.35;;
19593;SDS011;9944;48.240;16.478;2023-05-07T03:08:10;2.47;;;1.98;;
19593;SDS011;9944;48.240;16.478;2023-05-07T03:12:13;2.85;;;2.40;;
19593;SDS011;9944;48.240;16.478;2023-05-07T03:16:17;5.05;;;3.35;;
19593;SDS011;9944;48.240;16.478;2023-05-07T03:20:21;4.85;;;3.80;;
19593;SDS011;9944;48.240;16.478;2023-05-07T03:24:24;5.85;;;4.18;;
19593;SDS011;9944;48.240;16.478;2023-05-07T03:28:28;5.35;;;3.88;;
19593;SDS011;9944;48.240;16.478;2023-05-07T03:32:35;6.55;;;4.85;;
19593;SDS011;9944;48.240;16.478;2023-05-07T03:36:44;7.68;;;4.97;;
19593;SDS011;9944;48.240;16.478;2023-05-07T03:40:47;7.35;;;5.10;;
19593;SDS011;9944;48.240;16.478;2023-05-07T03:44:51;6.93;;;5.10;;
19593;SDS011;9944;48.240;16.478;2023-05-07T03:48:54;9.95;;;5.45;;
19593;SDS011;9944;48.240;16.478;2023-05-07T03:52:59;8.07;;;5.32;;
19593;SDS011;9944;48.240;16.478;2023-05-07T03:57:05;6.43;;;4.60;;
19593;SDS011;9944;48.240;16.478;2023-05-07T04:01:08;6.97;;;4.65;;
19593;SDS011;9944;48.240;16.478;2023-05-07T04:05:12;6.80;;;4.72;;
19593;SDS011;9944;48.240;16.478;2023-05-07T04:09:20;6.28;;;4.72;;
19593;SDS011;9944;48.240;16.478;2023-05-07T04:13:23;6.47;;;4.30;;
19593;SDS011;9944;48.240;16.478;2023-05-07T04:17:26;6.85;;;4.78;;
19593;SDS011;9944;48.240;16.478;2023-05-07T04:21:30;7.20;;;4.50;;
19593;SDS011;9944;48.240;16.478;2023-05-07T04:25:35;5.47;;;4.45;;
19593;SDS011;9944;48.240;16.478;2023-05-07T04:29:56;7.70;;;4.80;;
19593;SDS011;9944;48.240;16.478;2023-05-07T04:33:59;8.35;;;5.47;;
19593;SDS011;9944;48.240;16.478;2023-05-07T04:38:03;7.45;;;5.10;;
19593;SDS011;9944;48.240;16.478;2023-05-07T04:42:07;9.30;;;6.63;;
19593;SDS011;9944;48.240;16.478;2023-05-07T04:46:11;9.88;;;6.18;;
19593;SDS011;9944;48.240;16.478;2023-05-07T04:50:15;12.10;;;8.15;;
19593;SDS011;9944;48.240;16.478;2023-05-07T04:54:22;12.65;;;8.18;;
19593;SDS011;9944;48.240;16.478;2023-05-07T04:58:27;13.93;;;8.40;;
19593;SDS011;9944;48.240;16.478;2023-05-07T05:02:33;12.93;;;9.38;;
19593;SDS011;9944;48.240;16.478;2023-05-07T05:06:37;17.52;;;10.07;;
19593;SDS011;9944;48.240;16.478;2023-05-07T05:10:41;16.27;;;9.85;;
19593;SDS011;9944;48.240;16.478;2023-05-07T05:14:46;14.07;;;9.77;;
19593;SDS011;9944;48.240;16.478;2023-05-07T05:18:50;14.13;;;9.38;;
19593;SDS011;9944;48.240;16.478;2023-05-07T05:22:53;12.43;;;9.60;;
19593;SDS011;9944;48.240;16.478;2023-05-07T05:26:56;19.00;;;10.60;;
19593;SDS011;9944;48.240;16.478;2023-05-07T05:31:04;15.15;;;9.82;;
19593;SDS011;9944;48.240;16.478;2023-05-07T05:35:10;17.98;;;10.48;;
19593;SDS011;9944;48.240;16.478;2023-05-07T05:39:14;15.73;;;10.27;;
19593;SDS011;9944;48.240;16.478;2023-05-07T05:43:18;16.85;;;10.68;;
19593;SDS011;9944;48.240;16.478;2023-05-07T05:47:23;15.65;;;10.25;;
19593;SDS011;9944;48.240;16.478;2023-05-07T05:51:29;17.98;;;10.98;;
19593;SDS011;9944;48.240;16.478;2023-05-07T05:55:32;16.95;;;10.75;;
19593;SDS011;9944;48.240;16.478;2023-05-07T05:59:36;17.08;;;10.73;;
19593;SDS011;9944;48.240;16.478;2023-05-07T06:03:40;13.10;;;9.77;;
19593;SDS011;9944;48.240;16.478;2023-05-07T06:07:48;15.63;;;10.13;;
19593;SDS011;9944;48.240;16.478;2023-05-07T06:11:53;14.93;;;9.82;;
19593;SDS011;9944;48.240;16.478;2023-05-07T06:15:59;16.30;;;10.43;;
19593;SDS011;9944;48.240;16.478;2023-05-07T06:20:06;14.07;;;9.93;;
19593;SDS011;9944;48.240;16.478;2023-05-07T06:24:10;13.77;;;8.88;;
19593;SDS011;9944;48.240;16.478;2023-05-07T06:28:13;14.68;;;9.52;;
19593;SDS011;9944;48.240;16.478;2023-05-07T06:32:18;16.25;;;9.93;;
19593;SDS011;9944;48.240;16.478;2023-05-07T06:36:23;14.35;;;9.40;;
19593;SDS011;9944;48.240;16.478;2023-05-07T06:40:28;13.88;;;9.23;;
19593;SDS011;9944;48.240;16.478;2023-05-07T06:44:33;14.30;;;9.57;;
19593;SDS011;9944;48.240;16.478;2023-05-07T06:48:42;15.25;;;9.65;;
19593;SDS011;9944;48.240;16.478;2023-05-07T06:52:46;14.40;;;10.10;;
19593;SDS011;9944;48.240;16.478;2023-05-07T06:56:49;15.43;;;9.23;;
19593;SDS011;9944;48.240;16.478;2023-05-07T07:00:53;15.38;;;9.32;;
19593;SDS011;9944;48.240;16.478;2023-05-07T07:04:57;14.68;;;9.40;;
19593;SDS011;9944;48.240;16.478;2023-05-07T07:09:02;15.93;;;9.30;;
19593;SDS011;9944;48.240;16.478;2023-05-07T07:13:06;12.88;;;9.02;;
19593;SDS011;9944;48.240;16.478;2023-05-07T07:17:10;13.93;;;9.35;;
19593;SDS011;9944;48.240;16.478;2023-05-07T07:21:13;14.43;;;9.85;;
19593;SDS011;9944;48.240;16.478;2023-05-07T07:25:18;14.30;;;9.52;;
19593;SDS011;9944;48.240;16.478;2023-05-07T07:29:22;13.07;;;8.70;;
19593;SDS011;9944;48.240;16.478;2023-05-07T07:33:29;15.45;;;9.82;;
19593;SDS011;9944;48.240;16.478;2023-05-07T07:37:32;14.63;;;9.30;;
19593;SDS011;9944;48.240;16.478;2023-05-07T07:41:37;14.18;;;8.52;;
19593;SDS011;9944;48.240;16.478;2023-05-07T07:45:40;13.25;;;9.07;;
19593;SDS011;9944;48.240;16.478;2023-05-07T07:49:43;14.40;;;8.43;;
19593;SDS011;9944;48.240;16.478;2023-05-07T07:53:47;11.70;;;8.55;;
19593;SDS011;9944;48.240;16.478;2023-05-07T07:57:52;11.63;;;8.55;;
19593;SDS011;9944;48.240;16.478;2023-05-07T08:01:57;10.30;;;7.28;;
19593;SDS011;9944;48.240;16.478;2023-05-07T08:06:03;10.70;;;7.35;;
19593;SDS011;9944;48.240;16.478;2023-05-07T08:10:09;11.40;;;8.00;;
19593;SDS011;9944;48.240;16.478;2023-05-07T08:14:14;13.18;;;8.10;;
19593;SDS011;9944;48.240;16.478;2023-05-07T08:18:21;12.02;;;7.63;;
19593;SDS011;9944;48.240;16.478;2023-05-07T08:22:26;10.90;;;7.07;;
19593;SDS011;9944;48.240;16.478;2023-05-07T08:26:29;10.57;;;6.70;;
19593;SDS011;9944;48.240;16.478;2023-05-07T08:30:34;9.95;;;6.88;;
19593;SDS011;9944;48.240;16.478;2023-05-07T08:34:37;13.05;;;7.82;;
19593;SDS011;9944;48.240;16.478;2023-05-07T08:38:41;10.55;;;6.60;;
19593;SDS011;9944;48.240;16.478;2023-05-07T08:42:48;9.52;;;5.90;;
19593;SDS011;9944;48.240;16.478;2023-05-07T08:46:53;9.32;;;6.35;;
19593;SDS011;9944;48.240;16.478;2023-05-07T08:51:00;8.88;;;6.25;;
19593;SDS011;9944;48.240;16.478;2023-05-07T08:55:04;9.55;;;6.95;;
19593;SDS011;9944;48.240;16.478;2023-05-07T08:59:09;11.93;;;6.93;;
19593;SDS011;9944;48.240;16.478;2023-05-07T09:03:14;9.00;;;6.05;;
19593;SDS011;9944;48.240;16.478;2023-05-07T09:07:21;8.00;;;5.78;;
19593;SDS011;9944;48.240;16.478;2023-05-07T09:11:27;8.77;;;5.90;;
19593;SDS011;9944;48.240;16.478;2023-05-07T09:15:33;9.63;;;6.68;;
19593;SDS011;9944;48.240;16.478;2023-05-07T09:19:38;10.07;;;6.90;;
19593;SDS011;9944;48.240;16.478;2023-05-07T09:23:42;10.02;;;6.60;;
19593;SDS011;9944;48.240;16.478;2023-05-07T09:27:46;9.63;;;5.95;;
19593;SDS011;9944;48.240;16.478;2023-05-07T09:31:50;8.63;;;6.18;;
19593;SDS011;9944;48.240;16.478;2023-05-07T09:35:54;8.25;;;5.88;;
19593;SDS011;9944;48.240;16.478;2023-05-07T09:39:58;10.73;;;6.50;;
19593;SDS011;9944;48.240;16.478;2023-05-07T09:44:04;7.57;;;5.53;;
19593;SDS011;9944;48.240;16.478;2023-05-07T09:48:14;8.63;;;6.05;;
19593;SDS011;9944;48.240;16.478;2023-05-07T09:52:23;8.88;;;6.20;;
19593;SDS011;9944;48.240;16.478;2023-05-07T09:56:30;8.93;;;6.07;;
19593;SDS011;9944;48.240;16.478;2023-05-07T10:00:34;8.93;;;6.10;;
19593;SDS011;9944;48.240;16.478;2023-05-07T10:04:44;11.73;;;5.88;;
19593;SDS011;9944;48.240;16.478;2023-05-07T10:08:51;8.10;;;5.20;;
19593;SDS011;9944;48.240;16.478;2023-05-07T10:12:54;7.35;;;5.15;;
19593;SDS011;9944;48.240;16.478;2023-05-07T10:17:04;7.88;;;5.10;;
19593;SDS011;9944;48.240;16.478;2023-05-07T10:21:11;7.97;;;6.00;;
19593;SDS011;9944;48.240;16.478;2023-05-07T10:25:20;7.18;;;5.07;;
19593;SDS011;9944;48.240;16.478;2023-05-07T10:29:30;9.15;;;5.53;;
19593;SDS011;9944;48.240;16.478;2023-05-07T10:33:41;7.00;;;5.35;;
19593;SDS011;9944;48.240;16.478;2023-05-07T10:37:48;7.30;;;5.00;;
19593;SDS011;9944;48.240;16.478;2023-05-07T10:41:55;6.25;;;4.38;;
19593;SDS011;9944;48.240;16.478;2023-05-07T10:46:10;6.45;;;4.90;;
19593;SDS011;9944;48.240;16.478;2023-05-07T10:50:22;7.10;;;4.90;;
19593;SDS011;9944;48.240;16.478;2023-05-07T10:54:31;6.78;;;4.70;;
19593;SDS011;9944;48.240;16.478;2023-05-07T10:58:45;7.13;;;4.80;;
19593;SDS011;9944;48.240;16.478;2023-05-07T11:03:08;9.18;;;4.53;;
19593;SDS011;9944;48.240;16.478;2023-05-07T11:07:38;6.43;;;4.28;;
19593;SDS011;9944;48.240;16.478;2023-05-07T11:11:46;6.18;;;4.45;;
19593;SDS011;9944;48.240;16.478;2023-05-07T11:16:20;6.57;;;4.75;;
19593;SDS011;9944;48.240;16.478;2023-05-07T11:20:54;5.90;;;4.63;;
19593;SDS011;9944;48.240;16.478;2023-05-07T11:25:16;7.35;;;4.22;;
19593;SDS011;9944;48.240;16.478;2023-05-07T11:29:26;5.07;;;4.20;;
19593;SDS011;9944;48.240;16.478;2023-05-07T11:33:38;5.53;;;4.15;;
19593;SDS011;9944;48.240;16.478;2023-05-07T11:37:46;5.90;;;4.22;;
19593;SDS011;9944;48.240;16.478;2023-05-07T11:41:50;6.35;;;4.40;;
19593;SDS011;9944;48.240;16.478;2023-05-07T11:45:54;6.93;;;4.20;;
19593;SDS011;9944;48.240;16.478;2023-05-07T11:50:02;7.88;;;4.30;;
19593;SDS011;9944;48.240;16.478;2023-05-07T11:54:06;5.68;;;4.45;;
19593;SDS011;9944;48.240;16.478;2023-05-07T11:58:13;4.97;;;4.07;;
19593;SDS011;9944;48.240;16.478;2023-05-07T12:02:24;5.20;;;3.90;;
19593;SDS011;9944;48.240;16.478;2023-05-07T12:06:29;5.70;;;4.40;;
19593;SDS011;9944;48.240;16.478;2023-05-07T12:10:32;7.78;;;4.70;;
19593;SDS011;9944;48.240;16.478;2023-05-07T12:14:37;6.22;;;4.28;;
19593;SDS011;9944;48.240;16.478;2023-05-07T12:18:41;6.30;;;3.97;;
19593;SDS011;9944;48.240;16.478;2023-05-07T12:22:46;6.20;;;4.03;;
19593;SDS011;9944;48.240;16.478;2023-05-07T12:26:53;5.30;;;4.15;;
19593;SDS011;9944;48.240;16.478;2023-05-07T12:30:56;7.35;;;4.05;;
19593;SDS011;9944;48.240;16.478;2023-05-07T12:35:00;7.10;;;4.50;;
19593;SDS011;9944;48.240;16.478;2023-05-07T12:39:05;5.18;;;3.95;;
19593;SDS011;9944;48.240;16.478;2023-05-07T12:43:14;5.05;;;3.45;;
19593;SDS011;9944;48.240;16.478;2023-05-07T12:47:18;6.43;;;3.90;;
19593;SDS011;9944;48.240;16.478;2023-05-07T12:51:23;4.35;;;3.35;;
19593;SDS011;9944;48.240;16.478;2023-05-07T12:55:28;3.78;;;3.00;;
19593;SDS011;9944;48.240;16.478;2023-05-07T12:59:36;3.55;;;2.88;;
19593;SDS011;9944;48.240;16.478;2023-05-07T13:03:41;3.10;;;2.80;;
19593;SDS011;9944;48.240;16.478;2023-05-07T13:07:52;4.43;;;3.38;;
19593;SDS011;9944;48.240;16.478;2023-05-07T13:11:57;4.18;;;3.15;;
19593;SDS011;9944;48.240;16.478;2023-05-07T13:16:03;5.15;;;3.40;;
19593;SDS011;9944;48.240;16.478;2023-05-07T13:20:08;4.72;;;3.20;;
19593;SDS011;9944;48.240;16.478;2023-05-07T13:24:12;4.70;;;3.67;;
19593;SDS011;9944;48.240;16.478;2023-05-07T13:28:17;4.50;;;3.60;;
19593;SDS011;9944;48.240;16.478;2023-05-07T13:32:20;3.90;;;3.45;;
19593;SDS011;9944;48.240;16.478;2023-05-07T13:36:23;4.03;;;3.00;;
19593;SDS011;9944;48.240;16.478;2023-05-07T13:40:26;4.22;;;3.13;;
19593;SDS011;9944;48.240;16.478;2023-05-07T13:44:31;3.80;;;3.03;;
19593;SDS011;9944;48.240;16.478;2023-05-07T13:48:34;4.38;;;3.30;;
19593;SDS011;9944;48.240;16.478;2023-05-07T13:52:37;3.70;;;2.97;;
19593;SDS011;9944;48.240;16.478;2023-05-07T13:56:41;4.05;;;3.17;;
19593;SDS011;9944;48.240;16.478;2023-05-07T14:00:46;3.75;;;2.72;;
19593;SDS011;9944;48.240;16.478;2023-05-07T14:04:49;3.70;;;2.92;;
19593;SDS011;9944;48.240;16.478;2023-05-07T14:09:02;3.20;;;2.60;;
19593;SDS011;9944;48.240;16.478;2023-05-07T14:13:05;2.63;;;2.30;;
19593;SDS011;9944;48.240;16.478;2023-05-07T14:17:10;2.97;;;2.67;;
19593;SDS011;9944;48.240;16.478;2023-05-07T14:21:13;2.33;;;2.13;;
19593;SDS011;9944;48.240;16.478;2023-05-07T14:25:16;3.35;;;2.60;;
19593;SDS011;9944;48.240;16.478;2023-05-07T14:29:25;2.63;;;2.20;;
19593;SDS011;9944;48.240;16.478;2023-05-07T14:33:29;3.40;;;2.25;;
19593;SDS011;9944;48.240;16.478;2023-05-07T14:37:32;3.17;;;2.40;;
19593;SDS011;9944;48.240;16.478;2023-05-07T14:41:36;2.83;;;2.30;;
19593;SDS011;9944;48.240;16.478;2023-05-07T14:45:39;2.95;;;2.20;;
19593;SDS011;9944;48.240;16.478;2023-05-07T14:49:43;2.95;;;2.08;;
19593;SDS011;9944;48.240;16.478;2023-05-07T14:53:46;2.42;;;1.90;;
19593;SDS011;9944;48.240;16.478;2023-05-07T14:57:49;2.15;;;1.88;;
19593;SDS011;9944;48.240;16.478;2023-05-07T15:01:52;2.17;;;1.90;;
19593;SDS011;9944;48.240;16.478;2023-05-07T15:05:58;2.35;;;2.10;;
19593;SDS011;9944;48.240;16.478;2023-05-07T15:10:01;2.72;;;2.20;;
19593;SDS011;9944;48.240;16.478;2023-05-07T15:14:05;2.70;;;2.03;;
19593;SDS011;9944;48.240;16.478;2023-05-07T15:18:08;2.63;;;2.08;;
19593;SDS011;9944;48.240;16.478;2023-05-07T15:22:13;2.70;;;2.00;;
19593;SDS011;9944;48.240;16.478;2023-05-07T15:26:16;2.08;;;1.88;;
19593;SDS011;9944;48.240;16.478;2023-05-07T15:30:19;3.13;;;2.20;;
19593;SDS011;9944;48.240;16.478;2023-05-07T15:34:22;2.20;;;1.95;;
19593;SDS011;9944;48.240;16.478;2023-05-07T15:38:28;2.00;;;1.70;;
19593;SDS011;9944;48.240;16.478;2023-05-07T15:42:31;2.85;;;2.10;;
19593;SDS011;9944;48.240;16.478;2023-05-07T15:46:34;2.33;;;2.03;;
19593;SDS011;9944;48.240;16.478;2023-05-07T15:50:37;2.13;;;1.92;;
19593;SDS011;9944;48.240;16.478;2023-05-07T15:54:42;2.38;;;2.00;;
19593;SDS011;9944;48.240;16.478;2023-05-07T15:58:45;2.75;;;2.15;;
19593;SDS011;9944;48.240;16.478;2023-05-07T16:02:48;2.47;;;2.10;;
19593;SDS011;9944;48.240;16.478;2023-05-07T16:06:52;5.57;;;2.53;;
19593;SDS011;9944;48.240;16.478;2023-05-07T16:10:57;3.22;;;2.58;;
19593;SDS011;9944;48.240;16.478;2023-05-07T16:15:00;3.38;;;2.50;;
19593;SDS011;9944;48.240;16.478;2023-05-07T16:19:03;3.53;;;2.70;;
19593;SDS011;9944;48.240;16.478;2023-05-07T16:23:06;2.83;;;2.50;;
19593;SDS011;9944;48.240;16.478;2023-05-07T16:27:11;2.90;;;2.42;;
19593;SDS011;9944;48.240;16.478;2023-05-07T16:31:14;3.42;;;2.75;;
19593;SDS011;9944;48.240;16.478;2023-05-07T16:35:17;4.80;;;2.88;;
19593;SDS011;9944;48.240;16.478;2023-05-07T16:39:20;3.47;;;2.63;;
19593;SDS011;9944;48.240;16.478;2023-05-07T16:43:25;3.55;;;2.65;;
19593;SDS011;9944;48.240;16.478;2023-05-07T16:47:28;3.10;;;2.80;;
19593;SDS011;9944;48.240;16.478;2023-05-07T16:51:32;3.47;;;2.78;;
19593;SDS011;9944;48.240;16.478;2023-05-07T16:55:36;4.32;;;2.78;;
19593;SDS011;9944;48.240;16.478;2023-05-07T16:59:41;3.60;;;3.00;;
19593;SDS011;9944;48.240;16.478;2023-05-07T17:03:44;3.83;;;2.95;;
19593;SDS011;9944;48.240;16.478;2023-05-07T17:07:48;5.28;;;3.10;;
19593;SDS011;9944;48.240;16.478;2023-05-07T17:11:51;3.35;;;2.80;;
19593;SDS011;9944;48.240;16.478;2023-05-07T17:15:56;3.50;;;3.00;;
19593;SDS011;9944;48.240;16.478;2023-05-07T17:19:59;3.53;;;3.03;;
19593;SDS011;9944;48.240;16.478;2023-05-07T17:24:02;3.63;;;2.90;;
19593;SDS011;9944;48.240;16.478;2023-05-07T17:28:05;3.05;;;2.75;;
19593;SDS011;9944;48.240;16.478;2023-05-07T17:32:10;2.63;;;2.42;;
19593;SDS011;9944;48.240;16.478;2023-05-07T17:36:13;4.05;;;2.92;;
19593;SDS011;9944;48.240;16.478;2023-05-07T17:40:16;4.35;;;3.40;;
19593;SDS011;9944;48.240;16.478;2023-05-07T17:44:20;3.95;;;2.88;;
19593;SDS011;9944;48.240;16.478;2023-05-07T17:48:24;4.53;;;3.20;;
19593;SDS011;9944;48.240;16.478;2023-05-07T17:52:27;4.82;;;3.15;;
19593;SDS011;9944;48.240;16.478;2023-05-07T17:56:31;3.22;;;2.60;;
19593;SDS011;9944;48.240;16.478;2023-05-07T18:00:34;4.32;;;2.92;;
19593;SDS011;9944;48.240;16.478;2023-05-07T18:04:39;3.65;;;2.95;;
19593;SDS011;9944;48.240;16.478;2023-05-07T18:08:43;3.72;;;3.10;;
19593;SDS011;9944;48.240;16.478;2023-05-07T18:12:46;4.20;;;2.90;;
19593;SDS011;9944;48.240;16.478;2023-05-07T18:16:49;3.22;;;2.78;;
19593;SDS011;9944;48.240;16.478;2023-05-07T18:20:54;3.75;;;3.05;;
19593;SDS011;9944;48.240;16.478;2023-05-07T18:24:57;4.38;;;2.70;;
19593;SDS011;9944;48.240;16.478;2023-05-07T18:29:00;3.10;;;2.75;;
19593;SDS011;9944;48.240;16.478;2023-05-07T18:33:03;4.05;;;3.25;;
19593;SDS011;9944;48.240;16.478;2023-05-07T18:37:09;4.70;;;3.78;;
19593;SDS011;9944;48.240;16.478;2023-05-07T18:41:12;5.05;;;4.30;;
19593;SDS011;9944;48.240;16.478;2023-05-07T18:45:15;5.97;;;4.05;;
19593;SDS011;9944;48.240;16.478;2023-05-07T18:49:18;6.72;;;4.70;;
19593;SDS011;9944;48.240;16.478;2023-05-07T18:53:23;5.57;;;4.10;;
19593;SDS011;9944;48.240;16.478;2023-05-07T18:57:27;5.25;;;4.38;;
19593;SDS011;9944;48.240;16.478;2023-05-07T19:01:30;7.88;;;5.25;;
19593;SDS011;9944;48.240;16.478;2023-05-07T19:05:33;6.65;;;4.80;;
19593;SDS011;9944;48.240;16.478;2023-05-07T19:09:38;6.90;;;4.88;;
19593;SDS011;9944;48.240;16.478;2023-05-07T19:13:54;7.45;;;5.00;;
19593;SDS011;9944;48.240;16.478;2023-05-07T19:17:57;7.80;;;5.30;;
19593;SDS011;9944;48.240;16.478;2023-05-07T19:22:00;7.40;;;5.10;;
19593;SDS011;9944;48.240;16.478;2023-05-07T19:26:04;8.27;;;5.78;;
19593;SDS011;9944;48.240;16.478;2023-05-07T19:30:08;7.35;;;5.07;;
19593;SDS011;9944;48.240;16.478;2023-05-07T19:34:11;8.77;;;6.00;;
19593;SDS011;9944;48.240;16.478;2023-05-07T19:38:15;8.30;;;5.78;;
19593;SDS011;9944;48.240;16.478;2023-05-07T19:42:19;9.40;;;6.03;;
19593;SDS011;9944;48.240;16.478;2023-05-07T19:46:22;9.00;;;6.05;;
19593;SDS011;9944;48.240;16.478;2023-05-07T19:50:25;7.60;;;5.72;;
19593;SDS011;9944;48.240;16.478;2023-05-07T19:54:28;8.10;;;5.88;;
19593;SDS011;9944;48.240;16.478;2023-05-07T19:58:33;7.57;;;5.60;;
19593;SDS011;9944;48.240;16.478;2023-05-07T20:02:36;6.65;;;5.15;;
19593;SDS011;9944;48.240;16.478;2023-05-07T20:06:39;7.40;;;5.53;;
19593;SDS011;9944;48.240;16.478;2023-05-07T20:10:43;7.63;;;5.57;;
19593;SDS011;9944;48.240;16.478;2023-05-07T20:14:47;7.65;;;5.70;;
19593;SDS011;9944;48.240;16.478;2023-05-07T20:18:50;9.55;;;6.03;;
19593;SDS011;9944;48.240;16.478;2023-05-07T20:22:54;11.10;;;7.18;;
19593;SDS011;9944;48.240;16.478;2023-05-07T20:26:57;9.98;;;6.65;;
19593;SDS011;9944;48.240;16.478;2023-05-07T20:31:02;8.95;;;6.13;;
19593;SDS011;9944;48.240;16.478;2023-05-07T20:35:05;9.55;;;6.40;;
19593;SDS011;9944;48.240;16.478;2023-05-07T20:39:08;11.10;;;6.68;;
19593;SDS011;9944;48.240;16.478;2023-05-07T20:43:14;10.70;;;7.28;;
19593;SDS011;9944;48.240;16.478;2023-05-07T20:47:19;12.18;;;7.18;;
19593;SDS011;9944;48.240;16.478;2023-05-07T20:51:22;11.48;;;7.68;;
19593;SDS011;9944;48.240;16.478;2023-05-07T20:55:25;11.55;;;7.32;;
19593;SDS011;9944;48.240;16.478;2023-05-07T20:59:28;13.73;;;8.68;;
19593;SDS011;9944;48.240;16.478;2023-05-07T21:03:36;11.38;;;7.35;;
19593;SDS011;9944;48.240;16.478;2023-05-07T21:07:39;11.40;;;7.85;;
19593;SDS011;9944;48.240;16.478;2023-05-07T21:11:42;13.57;;;8.40;;
19593;SDS011;9944;48.240;16.478;2023-05-07T21:15:45;11.40;;;7.70;;
19593;SDS011;9944;48.240;16.478;2023-05-07T21:19:51;12.07;;;7.47;;
19593;SDS011;9944;48.240;16.478;2023-05-07T21:23:54;13.45;;;8.13;;
19593;SDS011;9944;48.240;16.478;2023-05-07T21:27:58;12.43;;;8.00;;
19593;SDS011;9944;48.240;16.478;2023-05-07T21:32:01;10.32;;;7.32;;
19593;SDS011;9944;48.240;16.478;2023-05-07T21:36:07;11.13;;;7.00;;
19593;SDS011;9944;48.240;16.478;2023-05-07T21:40:11;10.43;;;6.35;;
19593;SDS011;9944;48.240;16.478;2023-05-07T21:44:15;8.48;;;6.40;;
19593;SDS011;9944;48.240;16.478;2023-05-07T21:48:18;8.02;;;5.93;;
19593;SDS011;9944;48.240;16.478;2023-05-07T21:52:23;8.50;;;5.60;;
19593;SDS011;9944;48.240;16.478;2023-05-07T21:56:27;9.23;;;5.72;;
19593;SDS011;9944;48.240;16.478;2023-05-07T22:00:30;8.38;;;5.15;;
19593;SDS011;9944;48.240;16.478;2023-05-07T22:04:33;7.82;;;5.43;;
19593;SDS011;9944;48.240;16.478;2023-05-07T22:08:38;8.70;;;5.68;;
19593;SDS011;9944;48.240;16.478;2023-05-07T22:12:41;9.10;;;6.60;;
19593;SDS011;9944;48.240;16.478;2023-05-07T22:16:44;9.20;;;6.20;;
19593;SDS011;9944;48.240;16.478;2023-05-07T22:20:49;8.80;;;6.10;;
19593;SDS011;9944;48.240;16.478;2023-05-07T22:24:54;7.93;;;6.10;;
19593;SDS011;9944;48.240;16.478;2023-05-07T22:28:57;8.55;;;5.75;;
19593;SDS011;9944;48.240;16.478;2023-05-07T22:33:00;10.00;;;6.13;;
19593;SDS011;9944;48.240;16.478;2023-05-07T22:37:03;9.57;;;6.63;;
19593;SDS011;9944;48.240;16.478;2023-05-07T22:41:07;7.57;;;5.65;;
19593;SDS011;9944;48.240;16.478;2023-05-07T22:45:10;8.63;;;5.35;;
19593;SDS011;9944;48.240;16.478;2023-05-07T22:49:14;8.65;;;5.80;;
19593;SDS011;9944;48.240;16.478;2023-05-07T22:53:17;8.80;;;5.63;;
19593;SDS011;9944;48.240;16.478;2023-05-07T22:57:22;8.25;;;6.13;;
19593;SDS011;9944;48.240;16.478;2023-05-07T23:01:25;10.25;;;6.97;;
19593;SDS011;9944;48.240;16.478;2023-05-07T23:05:28;9.75;;;6.57;;
19593;SDS011;9944;48.240;16.478;2023-05-07T23:09:31;9.15;;;6.40;;
19593;SDS011;9944;48.240;16.478;2023-05-07T23:13:35;11.02;;;6.28;;
19593;SDS011;9944;48.240;16.478;2023-05-07T23:17:38;9.02;;;6.40;;
19593;SDS011;9944;48.240;16.478;2023-05-07T23:21:41;11.30;;;5.95;;
19593;SDS011;9944;48.240;16.478;2023-05-07T23:25:45;8.65;;;5.97;;
19593;SDS011;9944;48.240;16.478;2023-05-07T23:29:49;7.38;;;5.57;;
19593;SDS011;9944;48.240;16.478;2023-05-07T23:33:53;8.43;;;6.07;;
19593;SDS011;9944;48.240;16.478;2023-05-07T23:37:57;9.82;;;6.43;;
19593;SDS011;9944;48.240;16.478;2023-05-07T23:42:00;9.55;;;6.03;;
19593;SDS011;9944;48.240;16.478;2023-05-07T23:46:05;9.40;;;6.50;;
19593;SDS011;9944;48.240;16.478;2023-05-07T23:50:08;9.18;;;5.90;;
19593;SDS011;9944;48.240;16.478;2023-05-07T23:54:12;8.32;;;5.72;;
19593;SDS011;9944;48.240;16.478;2023-05-07T23:58:15;7.03;;;5.47;;
